Список аэропортов
Фактическая погода:

24 мая, 16:30
Температура: +15°C (+13.2*)
Ветер: юго-западный 8 м/с
Давление: *755 мм
Без существ. явл.
Время (МСК)Темп. СВетерВлажностьДавлениеОблачностьОсадки
15:00+15З, 7 м/с26%1007 гПамалооблачно
16:00+15З, 9 м/с29%1007 гПас прояснениями
17:00+14З, 8 м/с35%1008 гПас прояснениями
18:00+13ЮЗ, 7 м/с37%1007 гПас прояснениями
19:00+12ЮЗ, 6 м/с41%1007 гПаоблачно
20:00+11З, 5 м/с65%1008 гПаоблачнодождь
21:00+9СЗ, 6 м/с78%1009 гПаоблачнодождь
22:00+8СЗ, 8 м/с78%1010 гПас прояснениямисл. дождь
23:00+5СЗ, 8 м/с75%1011 гПамалооблачно
25 мая
00:00+3СЗ, 7 м/с75%1013 гПамалооблачно
01:00+2СЗ, 6 м/с79%1013 гПамалооблачно
02:00+2СЗ, 6 м/с83%1014 гПамалооблачно
03:00+1СЗ, 5 м/с84%1015 гПаоблачно
04:00+2СЗ, 5 м/с79%1016 гПамалооблачно
05:00+3СЗ, 5 м/с68%1017 гПаясно
06:00+5СЗ, 4 м/с56%1018 гПаясно
07:00+7СЗ, 4 м/с47%1018 гПаясно
08:00+8СЗ, 5 м/с38%1018 гПаясно
09:00+10СЗ, 5 м/с33%1018 гПаясно
10:00+11СЗ, 5 м/с30%1018 гПаясно
11:00+12СЗ, 5 м/с27%1018 гПаясно
12:00+13З, 5 м/с25%1018 гПаясно
13:00+14З, 5 м/с24%1018 гПаясно
14:00+14СЗ, 5 м/с23%1018 гПаясно
15:00+15СЗ, 5 м/с23%1018 гПаясно
16:00+15З, 4 м/с24%1018 гПаясно
17:00+14СЗ, 4 м/с25%1018 гПаясно
18:00+14СЗ, 3 м/с26%1018 гПаясно
19:00+12СЗ, 2 м/с34%1019 гПаясно
20:00+9З, 1 м/с50%1020 гПаясно
21:00+7Штиль 58%1020 гПаясно
22:00+6Ю, 1 м/с61%1020 гПаясно
23:00+5Ю, 1 м/с66%1021 гПаясно
26 мая
00:00+4Ю, 1 м/с74%1021 гПаясно
01:00+3Ю, 2 м/с80%1021 гПаясно
02:00+2ЮВ, 1 м/с87%1021 гПаясно
03:00+1ЮВ, 2 м/с86%1020 гПас прояснениями
04:00+4ЮВ, 3 м/с72%1019 гПаоблачно
05:00+8Ю, 5 м/с57%1019 гПаоблачно
06:00+10Ю, 7 м/с42%1018 гПаоблачно
07:00+12Ю, 7 м/с38%1017 гПаоблачно
08:00+14Ю, 7 м/с37%1016 гПас прояснениями
09:00+18Ю, 6 м/с37%1015 гПаоблачно
10:00+20Ю, 6 м/с35%1015 гПаоблачно
11:00+22Ю, 6 м/с33%1014 гПаоблачно
12:00+24ЮЗ, 6 м/с26%1013 гПаоблачно
13:00+25ЮЗ, 8 м/с22%1013 гПаоблачно
14:00+26ЮЗ, 8 м/с21%1012 гПаясно
15:00+26ЮЗ, 7 м/с21%1012 гПас прояснениями